createdAt,value
2023-03-26T00:03:30.968Z,1.45
2023-03-26T00:07:30.948Z,1.35
2023-03-26T00:11:31.014Z,1.68
2023-03-26T00:15:31.024Z,1.66
2023-03-26T00:19:31.033Z,1.53
2023-03-26T00:23:31.094Z,1.61
2023-03-26T00:27:31.104Z,1.59
2023-03-26T00:31:31.189Z,1.72
2023-03-26T00:35:31.251Z,1.43
2023-03-26T00:39:31.247Z,1.50
2023-03-26T00:43:31.334Z,1.70
2023-03-26T00:47:31.398Z,1.51
2023-03-26T00:51:31.440Z,1.64
2023-03-26T00:55:31.520Z,1.36
2023-03-26T00:59:31.589Z,1.62
2023-03-26T01:03:31.722Z,1.72
2023-03-26T01:07:31.668Z,1.72
2023-03-26T01:11:31.689Z,1.98
2023-03-26T01:15:31.774Z,2.01
2023-03-26T01:19:31.737Z,1.97
2023-03-26T01:23:31.752Z,2.18
2023-03-26T01:27:31.761Z,2.19
2023-03-26T01:31:31.761Z,2.09
2023-03-26T01:35:31.838Z,2.37
2023-03-26T01:39:31.830Z,2.34
2023-03-26T01:43:31.844Z,2.26
2023-03-26T01:47:31.879Z,1.89
2023-03-26T01:51:31.824Z,2.01
2023-03-26T01:55:31.812Z,1.99
2023-03-26T01:59:31.821Z,2.10
2023-03-26T02:03:31.920Z,2.08
2023-03-26T02:07:31.848Z,1.89
2023-03-26T02:11:35.444Z,2.16
2023-03-26T04:11:31.141Z,2.16
2023-03-26T04:15:31.156Z,1.99
2023-03-26T04:19:31.133Z,2.16
2023-03-26T04:23:31.164Z,2.44
2023-03-26T04:27:31.168Z,2.30
2023-03-26T04:31:31.231Z,2.36
2023-03-26T04:35:31.161Z,2.29
2023-03-26T04:39:31.152Z,2.24
2023-03-26T04:43:31.211Z,2.04
2023-03-26T04:47:31.154Z,1.97
2023-03-26T04:51:31.149Z,2.05
2023-03-26T04:55:31.152Z,2.18
2023-03-26T04:59:31.176Z,2.19
2023-03-26T05:03:31.186Z,2.15
2023-03-26T05:07:31.192Z,2.09
2023-03-26T05:11:31.205Z,1.96
2023-03-26T05:15:31.213Z,2.09
2023-03-26T05:19:31.224Z,1.85
2023-03-26T05:23:31.221Z,1.90
2023-03-26T05:27:31.235Z,2.02
2023-03-26T05:31:31.293Z,1.99
2023-03-26T05:35:31.376Z,2.00
2023-03-26T05:39:31.291Z,1.96
2023-03-26T05:43:31.360Z,1.91
2023-03-26T05:47:31.377Z,1.83
2023-03-26T05:51:31.358Z,1.99
2023-03-26T05:55:31.389Z,1.66
2023-03-26T05:59:31.475Z,1.89
2023-03-26T06:03:31.723Z,1.86
2023-03-26T06:07:31.626Z,1.72
2023-03-26T06:11:31.768Z,1.82
2023-03-26T06:15:31.896Z,1.92
2023-03-26T06:19:31.975Z,1.77
2023-03-26T06:23:32.138Z,1.85
2023-03-26T06:27:32.269Z,1.99
2023-03-26T06:31:32.493Z,1.93
2023-03-26T06:35:32.522Z,2.03
2023-03-26T06:39:32.397Z,2.23
2023-03-26T06:43:32.377Z,2.27
2023-03-26T06:47:32.368Z,2.37
2023-03-26T06:51:32.309Z,2.52
2023-03-26T06:55:32.266Z,2.39
2023-03-26T06:59:32.243Z,2.40
2023-03-26T07:03:32.213Z,2.57
2023-03-26T07:07:32.160Z,2.54
2023-03-26T07:11:32.131Z,2.20
2023-03-26T07:15:32.078Z,2.37
2023-03-26T07:19:32.069Z,2.88
2023-03-26T07:23:32.065Z,2.79
2023-03-26T07:27:32.272Z,2.77
2023-03-26T07:31:32.325Z,2.98
2023-03-26T07:35:32.634Z,2.96
2023-03-26T07:39:32.368Z,2.82
2023-03-26T07:43:32.462Z,2.82
2023-03-26T07:47:32.557Z,2.09
2023-03-26T07:51:32.552Z,2.48
2023-03-26T07:55:32.726Z,2.63
2023-03-26T07:59:32.684Z,2.51
2023-03-26T08:03:32.814Z,2.53
2023-03-26T08:07:32.609Z,2.77
2023-03-26T08:11:32.576Z,2.74
2023-03-26T08:15:32.634Z,2.71
2023-03-26T08:19:32.516Z,2.13
2023-03-26T08:23:32.567Z,2.19
2023-03-26T08:27:32.435Z,2.61
2023-03-26T08:31:32.447Z,2.03
2023-03-26T08:35:32.498Z,2.08
2023-03-26T08:39:32.336Z,1.77
2023-03-26T08:43:32.327Z,2.00
2023-03-26T08:47:32.326Z,1.98
2023-03-26T08:51:32.507Z,1.93
2023-03-26T08:55:32.729Z,1.85
2023-03-26T08:59:32.959Z,1.79
2023-03-26T09:03:32.916Z,1.93
2023-03-26T09:07:32.871Z,1.87
2023-03-26T09:11:32.811Z,1.85
2023-03-26T09:15:32.769Z,1.79
2023-03-26T09:19:32.784Z,1.73
2023-03-26T09:23:32.697Z,1.81
2023-03-26T09:27:32.683Z,1.83
2023-03-26T09:31:32.704Z,1.81
2023-03-26T09:35:32.697Z,1.82
2023-03-26T09:39:32.565Z,1.90
2023-03-26T09:43:32.531Z,1.81
2023-03-26T09:47:32.535Z,1.57
2023-03-26T09:51:32.466Z,1.65
2023-03-26T09:55:32.450Z,1.81
2023-03-26T09:59:32.376Z,1.56
2023-03-26T10:03:32.354Z,1.61
2023-03-26T10:07:32.313Z,1.61
2023-03-26T10:11:32.299Z,1.64
2023-03-26T10:15:32.253Z,1.64
2023-03-26T10:19:32.195Z,1.67
2023-03-26T10:23:32.272Z,1.51
2023-03-26T10:27:32.335Z,1.60
2023-03-26T10:31:32.330Z,1.61
2023-03-26T10:35:32.420Z,1.47
2023-03-26T10:39:36.251Z,1.61
2023-03-26T10:43:33.322Z,1.69
2023-03-26T10:47:32.341Z,2.04
2023-03-26T10:51:32.246Z,1.77
2023-03-26T10:55:32.208Z,1.95
2023-03-26T10:59:32.179Z,1.98
2023-03-26T11:03:32.137Z,1.76
2023-03-26T11:07:32.099Z,1.94
2023-03-26T11:11:32.091Z,1.93
2023-03-26T11:15:32.085Z,2.08
2023-03-26T11:19:32.019Z,2.07
2023-03-26T11:23:31.983Z,1.88
2023-03-26T11:27:31.934Z,1.89
2023-03-26T11:31:31.958Z,1.94
2023-03-26T11:35:40.462Z,1.84
2023-03-26T11:39:32.843Z,1.56
2023-03-26T11:43:31.825Z,1.87
2023-03-26T11:47:31.789Z,1.84
2023-03-26T11:51:31.738Z,2.03
2023-03-26T11:55:31.680Z,1.95
2023-03-26T11:59:32.740Z,1.85
2023-03-26T12:03:31.612Z,1.89
2023-03-26T12:07:31.588Z,1.86
2023-03-26T12:11:33.890Z,1.99
2023-03-26T12:15:31.512Z,1.46
2023-03-26T12:19:31.477Z,1.66
2023-03-26T12:23:31.473Z,1.43
2023-03-26T12:27:31.408Z,1.16
2023-03-26T12:31:31.413Z,1.03
2023-03-26T12:35:31.340Z,1.04
2023-03-26T12:40:07.350Z,0.91
2023-03-26T12:44:53.907Z,0.88
2023-03-26T12:48:00.250Z,0.87
2023-03-26T12:51:32.196Z,0.89
2023-03-26T12:55:31.159Z,0.82
2023-03-26T12:59:31.117Z,0.80
2023-03-26T13:03:31.180Z,0.68
2023-03-26T13:07:31.077Z,0.76
2023-03-26T13:11:31.033Z,0.74
2023-03-26T13:15:30.976Z,0.70
2023-03-26T13:19:30.960Z,0.76
2023-03-26T13:23:30.922Z,0.74
2023-03-26T13:27:30.885Z,0.69
2023-03-26T13:31:31.051Z,0.72
2023-03-26T13:35:31.170Z,0.74
2023-03-26T13:39:31.361Z,0.74
2023-03-26T13:43:31.382Z,0.73
2023-03-26T13:47:31.542Z,0.76
2023-03-26T13:51:31.638Z,0.74
2023-03-26T13:55:31.802Z,0.73
2023-03-26T13:59:31.912Z,0.75
2023-03-26T14:03:32.142Z,0.72
2023-03-26T14:07:32.205Z,0.78
2023-03-26T14:11:32.344Z,0.81
2023-03-26T14:15:32.506Z,0.68
2023-03-26T14:19:32.637Z,0.69
2023-03-26T14:23:32.815Z,0.65
2023-03-26T14:27:32.964Z,0.66
2023-03-26T14:31:33.172Z,0.80
2023-03-26T14:35:33.265Z,0.73
2023-03-26T14:39:33.423Z,0.74
2023-03-26T14:43:33.593Z,0.70
2023-03-26T14:47:33.964Z,0.71
2023-03-26T14:51:33.989Z,0.67
2023-03-26T14:55:34.148Z,0.74
2023-03-26T14:59:34.344Z,0.68
2023-03-26T15:03:34.543Z,0.65
2023-03-26T15:07:34.679Z,0.68
2023-03-26T15:11:34.886Z,0.67
2023-03-26T15:15:35.092Z,0.64
2023-03-26T15:19:35.257Z,0.69
2023-03-26T15:23:35.441Z,0.64
2023-03-26T15:27:35.675Z,0.61
2023-03-26T15:31:35.881Z,0.57
2023-03-26T15:35:36.070Z,0.60
2023-03-26T15:39:36.248Z,0.65
2023-03-26T15:43:36.473Z,0.67
2023-03-26T15:47:36.721Z,0.73
2023-03-26T15:51:46.583Z,0.72
2023-03-26T15:55:37.852Z,0.73
2023-03-26T15:59:36.818Z,0.73
2023-03-26T16:03:36.916Z,0.70
2023-03-26T16:07:37.116Z,0.76
2023-03-26T16:11:37.103Z,0.68
2023-03-26T16:15:37.105Z,0.71
2023-03-26T16:19:37.026Z,0.77
2023-03-26T16:23:47.201Z,0.80
2023-03-26T16:27:38.135Z,0.88
2023-03-26T16:31:39.241Z,0.89
2023-03-26T16:35:37.600Z,0.99
2023-03-26T16:39:37.507Z,1.00
2023-03-26T16:43:37.472Z,1.03
2023-03-26T16:47:37.459Z,0.97
2023-03-26T16:51:37.408Z,1.00
2023-03-26T16:55:37.400Z,0.97
2023-03-26T16:59:37.325Z,1.02
2023-03-26T17:03:37.455Z,0.90
2023-03-26T17:07:37.243Z,0.98
2023-03-26T17:11:37.270Z,0.96
2023-03-26T17:15:37.221Z,1.06
2023-03-26T17:19:37.229Z,1.10
2023-03-26T17:23:39.659Z,1.14
2023-03-26T17:27:37.123Z,1.10
2023-03-26T17:31:37.150Z,1.20
2023-03-26T17:35:37.098Z,1.41
2023-03-26T17:39:37.000Z,1.57
2023-03-26T17:43:36.961Z,1.38
2023-03-26T17:47:36.948Z,1.53
2023-03-26T17:51:36.898Z,1.44
2023-03-26T17:55:36.877Z,1.52
2023-03-26T17:59:38.784Z,1.61
2023-03-26T18:03:36.829Z,1.51
2023-03-26T18:07:36.756Z,1.23
2023-03-26T18:11:36.700Z,1.42
2023-03-26T18:15:36.687Z,1.26
2023-03-26T18:19:36.635Z,1.26
2023-03-26T18:23:36.603Z,1.15
2023-03-26T18:27:36.570Z,0.96
2023-03-26T18:31:36.548Z,0.82
2023-03-26T18:35:36.523Z,0.93
2023-03-26T18:39:36.445Z,1.11
2023-03-26T18:43:44.475Z,1.01
2023-03-26T18:47:37.391Z,1.05
2023-03-26T18:51:43.202Z,1.12
2023-03-26T18:55:37.303Z,1.12
2023-03-26T18:59:36.326Z,0.98
2023-03-26T19:03:36.289Z,1.01
2023-03-26T19:07:36.176Z,0.96
2023-03-26T19:11:36.307Z,0.82
2023-03-26T19:15:36.450Z,0.74
2023-03-26T19:19:36.603Z,1.02
2023-03-26T19:23:36.753Z,0.96
2023-03-26T19:27:36.962Z,0.99
2023-03-26T19:31:37.189Z,1.14
2023-03-26T19:35:37.246Z,1.21
2023-03-26T19:39:37.811Z,0.94
2023-03-26T19:43:37.525Z,0.91
2023-03-26T19:47:48.466Z,0.90
2023-03-26T19:51:38.657Z,0.83
2023-03-26T19:55:37.599Z,0.78
2023-03-26T19:59:37.735Z,0.83
2023-03-26T20:03:38.234Z,0.94
2023-03-26T20:07:38.067Z,0.75
2023-03-26T20:11:38.182Z,0.75
2023-03-26T20:15:38.325Z,0.76
2023-03-26T20:19:38.428Z,0.60
2023-03-26T20:23:38.541Z,0.63
2023-03-26T20:27:38.650Z,0.64
2023-03-26T20:31:38.770Z,0.65
2023-03-26T20:35:38.920Z,0.62
2023-03-26T20:39:39.073Z,0.59
2023-03-26T20:43:39.196Z,0.50
2023-03-26T20:47:39.322Z,0.61
2023-03-26T20:51:39.451Z,0.64
2023-03-26T20:55:41.134Z,0.62
2023-03-26T20:59:39.801Z,0.66
2023-03-26T21:03:39.793Z,0.62
2023-03-26T21:07:39.919Z,0.63
2023-03-26T21:11:40.024Z,0.69
2023-03-26T21:15:40.186Z,0.70
2023-03-26T21:19:40.267Z,0.82
2023-03-26T21:23:40.309Z,0.66
2023-03-26T21:27:40.408Z,0.64
2023-03-26T21:31:40.530Z,0.59
2023-03-26T21:35:40.630Z,0.59
2023-03-26T21:39:40.551Z,0.52
2023-03-26T21:43:40.635Z,0.62
2023-03-26T21:47:40.734Z,0.84
2023-03-26T21:51:40.708Z,0.65
2023-03-26T21:55:40.749Z,0.66
2023-03-26T21:59:40.749Z,0.64
2023-03-26T22:03:40.797Z,0.65
2023-03-26T22:07:40.798Z,0.61
2023-03-26T22:11:40.799Z,0.59
2023-03-26T22:15:40.814Z,0.67
2023-03-26T22:19:40.793Z,0.51
2023-03-26T22:23:40.850Z,0.59
2023-03-26T22:27:44.163Z,0.57
2023-03-26T22:31:40.911Z,0.62
2023-03-26T22:35:40.825Z,0.53
2023-03-26T22:39:40.757Z,0.53
2023-03-26T22:43:40.704Z,0.70
2023-03-26T22:47:40.675Z,0.59
2023-03-26T22:51:40.619Z,0.57
2023-03-26T22:55:40.585Z,0.72
2023-03-26T22:59:40.541Z,0.65
2023-03-26T23:03:40.522Z,0.59
2023-03-26T23:07:40.475Z,0.73
2023-03-26T23:11:40.430Z,0.64
2023-03-26T23:15:40.398Z,0.60
2023-03-26T23:19:40.369Z,0.62
2023-03-26T23:23:40.320Z,0.56
2023-03-26T23:27:40.329Z,0.53
2023-03-26T23:31:40.304Z,0.57
2023-03-26T23:35:40.209Z,0.79
2023-03-26T23:39:40.191Z,0.59
2023-03-26T23:43:40.147Z,0.78
2023-03-26T23:47:41.132Z,0.86
2023-03-26T23:51:40.093Z,0.77
2023-03-26T23:55:40.046Z,0.79
2023-03-26T23:59:39.985Z,1.02
